sensor_id;sensor_type;location;lat;lon;timestamp;P1;durP1;ratioP1;P2;durP2;ratioP2
62050;SDS011;48008;51.204;6.766;2022-10-31T00:00:28;37.67;;;12.93;;
62050;SDS011;48008;51.204;6.766;2022-10-31T00:02:54;35.22;;;12.90;;
62050;SDS011;48008;51.204;6.766;2022-10-31T00:05:21;35.78;;;12.90;;
62050;SDS011;48008;51.204;6.766;2022-10-31T00:07:51;32.38;;;12.98;;
62050;SDS011;48008;51.204;6.766;2022-10-31T00:10:18;35.42;;;12.63;;
62050;SDS011;48008;51.204;6.766;2022-10-31T00:12:45;32.15;;;12.52;;
62050;SDS011;48008;51.204;6.766;2022-10-31T00:15:12;37.35;;;13.52;;
62050;SDS011;48008;51.204;6.766;2022-10-31T00:17:38;37.92;;;12.48;;
62050;SDS011;48008;51.204;6.766;2022-10-31T00:20:05;33.30;;;12.48;;
62050;SDS011;48008;51.204;6.766;2022-10-31T00:22:32;32.92;;;12.43;;
62050;SDS011;48008;51.204;6.766;2022-10-31T00:24:59;30.98;;;12.10;;
62050;SDS011;48008;51.204;6.766;2022-10-31T00:27:26;34.53;;;12.20;;
62050;SDS011;48008;51.204;6.766;2022-10-31T00:29:53;35.47;;;14.05;;
62050;SDS011;48008;51.204;6.766;2022-10-31T00:32:20;30.10;;;12.02;;
62050;SDS011;48008;51.204;6.766;2022-10-31T00:34:47;31.05;;;12.48;;
62050;SDS011;48008;51.204;6.766;2022-10-31T00:37:13;25.92;;;12.13;;
62050;SDS011;48008;51.204;6.766;2022-10-31T00:39:41;33.03;;;13.50;;
62050;SDS011;48008;51.204;6.766;2022-10-31T00:42:08;36.05;;;12.60;;
62050;SDS011;48008;51.204;6.766;2022-10-31T00:44:35;28.73;;;12.38;;
62050;SDS011;48008;51.204;6.766;2022-10-31T00:47:01;31.60;;;13.05;;
62050;SDS011;48008;51.204;6.766;2022-10-31T00:49:28;42.83;;;13.88;;
62050;SDS011;48008;51.204;6.766;2022-10-31T00:51:55;31.30;;;13.07;;
62050;SDS011;48008;51.204;6.766;2022-10-31T00:54:22;32.65;;;12.77;;
62050;SDS011;48008;51.204;6.766;2022-10-31T00:56:48;33.67;;;13.30;;
62050;SDS011;48008;51.204;6.766;2022-10-31T00:59:15;31.75;;;12.55;;
62050;SDS011;48008;51.204;6.766;2022-10-31T01:01:42;29.98;;;12.57;;
62050;SDS011;48008;51.204;6.766;2022-10-31T01:04:09;32.22;;;12.98;;
62050;SDS011;48008;51.204;6.766;2022-10-31T01:06:36;35.38;;;12.27;;
62050;SDS011;48008;51.204;6.766;2022-10-31T01:09:02;27.30;;;12.43;;
62050;SDS011;48008;51.204;6.766;2022-10-31T01:11:29;30.00;;;12.73;;
62050;SDS011;48008;51.204;6.766;2022-10-31T01:13:56;34.08;;;13.25;;
62050;SDS011;48008;51.204;6.766;2022-10-31T01:16:24;40.63;;;13.88;;
62050;SDS011;48008;51.204;6.766;2022-10-31T01:18:52;33.25;;;12.50;;
62050;SDS011;48008;51.204;6.766;2022-10-31T01:21:20;29.73;;;12.60;;
62050;SDS011;48008;51.204;6.766;2022-10-31T01:23:49;35.13;;;12.88;;
62050;SDS011;48008;51.204;6.766;2022-10-31T01:26:18;38.67;;;12.90;;
62050;SDS011;48008;51.204;6.766;2022-10-31T01:28:48;34.47;;;12.57;;
62050;SDS011;48008;51.204;6.766;2022-10-31T01:31:18;37.53;;;12.90;;
62050;SDS011;48008;51.204;6.766;2022-10-31T01:33:47;33.05;;;12.77;;
62050;SDS011;48008;51.204;6.766;2022-10-31T01:36:22;26.77;;;12.18;;
62050;SDS011;48008;51.204;6.766;2022-10-31T01:38:53;35.05;;;12.50;;
62050;SDS011;48008;51.204;6.766;2022-10-31T01:41:22;31.55;;;12.50;;
62050;SDS011;48008;51.204;6.766;2022-10-31T01:43:53;28.65;;;13.05;;
62050;SDS011;48008;51.204;6.766;2022-10-31T01:46:22;40.40;;;13.63;;
62050;SDS011;48008;51.204;6.766;2022-10-31T01:48:52;30.23;;;13.00;;
62050;SDS011;48008;51.204;6.766;2022-10-31T01:51:23;31.55;;;13.07;;
62050;SDS011;48008;51.204;6.766;2022-10-31T01:53:55;29.67;;;12.88;;
62050;SDS011;48008;51.204;6.766;2022-10-31T01:56:25;30.07;;;13.57;;
62050;SDS011;48008;51.204;6.766;2022-10-31T01:58:53;32.83;;;12.80;;
62050;SDS011;48008;51.204;6.766;2022-10-31T02:01:22;32.60;;;12.80;;
62050;SDS011;48008;51.204;6.766;2022-10-31T02:03:49;33.97;;;13.63;;
62050;SDS011;48008;51.204;6.766;2022-10-31T02:06:22;34.80;;;13.45;;
62050;SDS011;48008;51.204;6.766;2022-10-31T02:08:58;35.20;;;13.00;;
62050;SDS011;48008;51.204;6.766;2022-10-31T02:11:27;33.97;;;12.80;;
62050;SDS011;48008;51.204;6.766;2022-10-31T02:13:56;31.20;;;13.00;;
62050;SDS011;48008;51.204;6.766;2022-10-31T02:16:24;39.00;;;13.13;;
62050;SDS011;48008;51.204;6.766;2022-10-31T02:18:51;38.25;;;13.32;;
62050;SDS011;48008;51.204;6.766;2022-10-31T02:21:19;27.48;;;11.85;;
62050;SDS011;48008;51.204;6.766;2022-10-31T02:24:43;36.25;;;13.00;;
62050;SDS011;48008;51.204;6.766;2022-10-31T02:27:07;39.75;;;11.93;;
62050;SDS011;48008;51.204;6.766;2022-10-31T02:29:53;29.00;;;12.23;;
62050;SDS011;48008;51.204;6.766;2022-10-31T02:32:47;36.33;;;12.80;;
62050;SDS011;48008;51.204;6.766;2022-10-31T02:35:39;41.83;;;12.80;;
62050;SDS011;48008;51.204;6.766;2022-10-31T02:41:34;32.88;;;12.55;;
62050;SDS011;48008;51.204;6.766;2022-10-31T02:44:35;33.25;;;12.35;;
62050;SDS011;48008;51.204;6.766;2022-10-31T02:47:05;30.75;;;12.68;;
62050;SDS011;48008;51.204;6.766;2022-10-31T02:49:45;31.17;;;12.95;;
62050;SDS011;48008;51.204;6.766;2022-10-31T02:52:21;36.08;;;13.15;;
62050;SDS011;48008;51.204;6.766;2022-10-31T02:54:50;33.17;;;12.60;;
62050;SDS011;48008;51.204;6.766;2022-10-31T02:57:34;31.20;;;12.40;;
62050;SDS011;48008;51.204;6.766;2022-10-31T03:00:04;35.67;;;12.32;;
62050;SDS011;48008;51.204;6.766;2022-10-31T03:10:56;32.72;;;13.50;;
62050;SDS011;48008;51.204;6.766;2022-10-31T03:13:30;23.98;;;11.27;;
62050;SDS011;48008;51.204;6.766;2022-10-31T03:18:50;27.90;;;11.55;;
62050;SDS011;48008;51.204;6.766;2022-10-31T03:21:23;33.55;;;13.07;;
62050;SDS011;48008;51.204;6.766;2022-10-31T03:23:58;37.17;;;13.05;;
62050;SDS011;48008;51.204;6.766;2022-10-31T03:26:27;40.78;;;12.65;;
62050;SDS011;48008;51.204;6.766;2022-10-31T03:28:57;31.23;;;12.40;;
62050;SDS011;48008;51.204;6.766;2022-10-31T03:31:29;27.05;;;12.25;;
62050;SDS011;48008;51.204;6.766;2022-10-31T03:34:18;34.67;;;12.38;;
62050;SDS011;48008;51.204;6.766;2022-10-31T03:36:47;31.35;;;12.00;;
62050;SDS011;48008;51.204;6.766;2022-10-31T03:39:18;32.77;;;13.00;;
62050;SDS011;48008;51.204;6.766;2022-10-31T03:41:49;34.97;;;12.95;;
62050;SDS011;48008;51.204;6.766;2022-10-31T03:44:21;32.95;;;12.75;;
62050;SDS011;48008;51.204;6.766;2022-10-31T03:46:57;32.03;;;12.60;;
62050;SDS011;48008;51.204;6.766;2022-10-31T03:49:24;27.35;;;11.93;;
62050;SDS011;48008;51.204;6.766;2022-10-31T03:51:57;37.75;;;12.13;;
62050;SDS011;48008;51.204;6.766;2022-10-31T03:54:32;30.90;;;11.15;;
62050;SDS011;48008;51.204;6.766;2022-10-31T03:57:09;28.80;;;11.20;;
62050;SDS011;48008;51.204;6.766;2022-10-31T03:59:48;30.20;;;12.18;;
62050;SDS011;48008;51.204;6.766;2022-10-31T04:02:20;35.60;;;12.90;;
62050;SDS011;48008;51.204;6.766;2022-10-31T04:04:51;35.28;;;12.27;;
62050;SDS011;48008;51.204;6.766;2022-10-31T04:07:18;38.97;;;12.85;;
62050;SDS011;48008;51.204;6.766;2022-10-31T04:09:48;33.25;;;12.75;;
62050;SDS011;48008;51.204;6.766;2022-10-31T04:12:19;27.38;;;12.68;;
62050;SDS011;48008;51.204;6.766;2022-10-31T04:14:57;32.03;;;12.63;;
62050;SDS011;48008;51.204;6.766;2022-10-31T04:17:25;31.52;;;12.50;;
62050;SDS011;48008;51.204;6.766;2022-10-31T04:19:58;28.75;;;13.13;;
62050;SDS011;48008;51.204;6.766;2022-10-31T04:22:25;32.42;;;12.75;;
62050;SDS011;48008;51.204;6.766;2022-10-31T04:24:52;30.13;;;13.05;;
62050;SDS011;48008;51.204;6.766;2022-10-31T04:27:19;32.05;;;13.25;;
62050;SDS011;48008;51.204;6.766;2022-10-31T04:29:45;37.38;;;13.30;;
62050;SDS011;48008;51.204;6.766;2022-10-31T04:32:12;32.13;;;12.70;;
62050;SDS011;48008;51.204;6.766;2022-10-31T04:34:39;33.83;;;12.00;;
62050;SDS011;48008;51.204;6.766;2022-10-31T04:37:06;30.92;;;13.07;;
62050;SDS011;48008;51.204;6.766;2022-10-31T04:39:32;30.25;;;12.48;;
62050;SDS011;48008;51.204;6.766;2022-10-31T04:42:19;32.33;;;12.82;;
62050;SDS011;48008;51.204;6.766;2022-10-31T04:44:46;32.60;;;12.27;;
62050;SDS011;48008;51.204;6.766;2022-10-31T04:47:13;34.30;;;12.45;;
62050;SDS011;48008;51.204;6.766;2022-10-31T04:49:41;32.92;;;13.27;;
62050;SDS011;48008;51.204;6.766;2022-10-31T04:52:10;34.95;;;12.73;;
62050;SDS011;48008;51.204;6.766;2022-10-31T04:54:37;33.17;;;13.13;;
62050;SDS011;48008;51.204;6.766;2022-10-31T04:57:23;35.97;;;12.35;;
62050;SDS011;48008;51.204;6.766;2022-10-31T04:59:50;28.45;;;12.07;;
62050;SDS011;48008;51.204;6.766;2022-10-31T05:02:17;35.03;;;14.15;;
62050;SDS011;48008;51.204;6.766;2022-10-31T05:04:51;31.83;;;12.70;;
62050;SDS011;48008;51.204;6.766;2022-10-31T05:07:17;41.38;;;13.18;;
62050;SDS011;48008;51.204;6.766;2022-10-31T05:09:44;28.30;;;12.05;;
62050;SDS011;48008;51.204;6.766;2022-10-31T05:12:12;31.23;;;13.30;;
62050;SDS011;48008;51.204;6.766;2022-10-31T05:14:58;30.65;;;12.43;;
62050;SDS011;48008;51.204;6.766;2022-10-31T05:17:45;27.52;;;12.38;;
62050;SDS011;48008;51.204;6.766;2022-10-31T05:20:33;29.92;;;11.88;;
62050;SDS011;48008;51.204;6.766;2022-10-31T05:23:10;32.72;;;12.85;;
62050;SDS011;48008;51.204;6.766;2022-10-31T05:25:37;29.92;;;12.85;;
62050;SDS011;48008;51.204;6.766;2022-10-31T05:28:06;36.80;;;12.45;;
62050;SDS011;48008;51.204;6.766;2022-10-31T05:30:33;39.95;;;12.48;;
62050;SDS011;48008;51.204;6.766;2022-10-31T05:33:02;34.13;;;11.90;;
62050;SDS011;48008;51.204;6.766;2022-10-31T05:35:49;30.55;;;12.75;;
62050;SDS011;48008;51.204;6.766;2022-10-31T05:38:35;38.42;;;12.70;;
62050;SDS011;48008;51.204;6.766;2022-10-31T05:41:22;35.80;;;12.45;;
62050;SDS011;48008;51.204;6.766;2022-10-31T05:43:49;34.40;;;12.63;;
62050;SDS011;48008;51.204;6.766;2022-10-31T05:46:20;33.45;;;13.13;;
62050;SDS011;48008;51.204;6.766;2022-10-31T05:49:06;32.60;;;12.88;;
62050;SDS011;48008;51.204;6.766;2022-10-31T05:51:53;39.63;;;12.93;;
62050;SDS011;48008;51.204;6.766;2022-10-31T05:54:26;36.17;;;12.93;;
62050;SDS011;48008;51.204;6.766;2022-10-31T05:56:52;45.80;;;12.45;;
62050;SDS011;48008;51.204;6.766;2022-10-31T05:59:20;46.08;;;13.55;;
62050;SDS011;48008;51.204;6.766;2022-10-31T06:01:47;33.65;;;12.65;;
62050;SDS011;48008;51.204;6.766;2022-10-31T06:04:27;28.88;;;13.35;;
62050;SDS011;48008;51.204;6.766;2022-10-31T06:06:53;34.50;;;13.20;;
62050;SDS011;48008;51.204;6.766;2022-10-31T06:09:21;34.50;;;13.77;;
62050;SDS011;48008;51.204;6.766;2022-10-31T06:11:48;33.50;;;12.88;;
62050;SDS011;48008;51.204;6.766;2022-10-31T06:14:35;36.42;;;13.55;;
62050;SDS011;48008;51.204;6.766;2022-10-31T06:17:02;33.03;;;13.40;;
62050;SDS011;48008;51.204;6.766;2022-10-31T06:19:49;39.50;;;13.55;;
62050;SDS011;48008;51.204;6.766;2022-10-31T06:22:24;35.75;;;14.48;;
62050;SDS011;48008;51.204;6.766;2022-10-31T06:24:51;37.35;;;14.15;;
62050;SDS011;48008;51.204;6.766;2022-10-31T06:27:25;36.40;;;13.30;;
62050;SDS011;48008;51.204;6.766;2022-10-31T06:29:53;40.38;;;13.65;;
62050;SDS011;48008;51.204;6.766;2022-10-31T06:32:27;35.50;;;13.02;;
62050;SDS011;48008;51.204;6.766;2022-10-31T06:34:54;41.15;;;15.05;;
62050;SDS011;48008;51.204;6.766;2022-10-31T06:37:22;35.60;;;14.25;;
62050;SDS011;48008;51.204;6.766;2022-10-31T06:39:49;36.58;;;14.35;;
62050;SDS011;48008;51.204;6.766;2022-10-31T06:42:17;32.42;;;14.05;;
62050;SDS011;48008;51.204;6.766;2022-10-31T06:44:43;30.40;;;13.75;;
62050;SDS011;48008;51.204;6.766;2022-10-31T06:47:30;47.28;;;14.32;;
62050;SDS011;48008;51.204;6.766;2022-10-31T06:50:02;35.67;;;13.48;;
62050;SDS011;48008;51.204;6.766;2022-10-31T06:52:29;38.58;;;14.20;;
62050;SDS011;48008;51.204;6.766;2022-10-31T06:54:56;34.33;;;13.63;;
62050;SDS011;48008;51.204;6.766;2022-10-31T06:57:23;31.02;;;14.27;;
62050;SDS011;48008;51.204;6.766;2022-10-31T06:59:49;36.88;;;14.18;;
62050;SDS011;48008;51.204;6.766;2022-10-31T07:02:20;34.88;;;13.88;;
62050;SDS011;48008;51.204;6.766;2022-10-31T07:04:48;36.00;;;14.75;;
62050;SDS011;48008;51.204;6.766;2022-10-31T07:07:16;32.13;;;14.48;;
62050;SDS011;48008;51.204;6.766;2022-10-31T07:09:44;41.17;;;15.68;;
62050;SDS011;48008;51.204;6.766;2022-10-31T07:12:15;45.05;;;15.88;;
62050;SDS011;48008;51.204;6.766;2022-10-31T07:14:50;43.67;;;17.63;;
62050;SDS011;48008;51.204;6.766;2022-10-31T07:17:17;41.00;;;15.45;;
62050;SDS011;48008;51.204;6.766;2022-10-31T07:19:45;39.35;;;14.80;;
62050;SDS011;48008;51.204;6.766;2022-10-31T07:22:15;42.00;;;14.60;;
62050;SDS011;48008;51.204;6.766;2022-10-31T07:24:43;47.72;;;16.27;;
62050;SDS011;48008;51.204;6.766;2022-10-31T07:27:37;40.95;;;15.57;;
62050;SDS011;48008;51.204;6.766;2022-10-31T07:30:09;38.83;;;14.55;;
62050;SDS011;48008;51.204;6.766;2022-10-31T07:32:46;41.53;;;15.23;;
62050;SDS011;48008;51.204;6.766;2022-10-31T07:35:17;37.63;;;15.00;;
62050;SDS011;48008;51.204;6.766;2022-10-31T07:37:46;40.28;;;14.70;;
62050;SDS011;48008;51.204;6.766;2022-10-31T07:40:15;41.60;;;14.82;;
62050;SDS011;48008;51.204;6.766;2022-10-31T07:42:43;42.78;;;15.65;;
62050;SDS011;48008;51.204;6.766;2022-10-31T07:45:31;43.10;;;15.18;;
62050;SDS011;48008;51.204;6.766;2022-10-31T07:48:18;38.58;;;15.82;;
62050;SDS011;48008;51.204;6.766;2022-10-31T07:51:04;40.13;;;14.50;;
62050;SDS011;48008;51.204;6.766;2022-10-31T07:53:53;36.08;;;14.45;;
62050;SDS011;48008;51.204;6.766;2022-10-31T07:56:23;40.25;;;15.55;;
62050;SDS011;48008;51.204;6.766;2022-10-31T07:58:50;47.20;;;15.73;;
62050;SDS011;48008;51.204;6.766;2022-10-31T08:01:17;38.92;;;14.98;;
62050;SDS011;48008;51.204;6.766;2022-10-31T08:03:57;35.85;;;15.30;;
62050;SDS011;48008;51.204;6.766;2022-10-31T08:06:43;47.88;;;15.27;;
62050;SDS011;48008;51.204;6.766;2022-10-31T08:09:23;40.95;;;14.98;;
62050;SDS011;48008;51.204;6.766;2022-10-31T08:11:52;41.33;;;15.82;;
62050;SDS011;48008;51.204;6.766;2022-10-31T08:14:19;37.05;;;16.55;;
62050;SDS011;48008;51.204;6.766;2022-10-31T08:16:46;46.00;;;16.10;;
62050;SDS011;48008;51.204;6.766;2022-10-31T08:19:13;45.83;;;15.93;;
62050;SDS011;48008;51.204;6.766;2022-10-31T08:21:40;42.90;;;16.60;;
62050;SDS011;48008;51.204;6.766;2022-10-31T08:24:08;45.60;;;16.13;;
62050;SDS011;48008;51.204;6.766;2022-10-31T08:26:35;42.13;;;16.20;;
62050;SDS011;48008;51.204;6.766;2022-10-31T08:29:03;45.13;;;16.73;;
62050;SDS011;48008;51.204;6.766;2022-10-31T08:31:32;46.40;;;15.38;;
62050;SDS011;48008;51.204;6.766;2022-10-31T08:34:21;45.60;;;16.35;;
62050;SDS011;48008;51.204;6.766;2022-10-31T08:37:07;43.60;;;15.93;;
62050;SDS011;48008;51.204;6.766;2022-10-31T08:39:40;38.33;;;14.43;;
62050;SDS011;48008;51.204;6.766;2022-10-31T08:42:06;39.38;;;13.93;;
62050;SDS011;48008;51.204;6.766;2022-10-31T08:44:33;41.58;;;14.27;;
62050;SDS011;48008;51.204;6.766;2022-10-31T08:47:00;38.25;;;13.98;;
62050;SDS011;48008;51.204;6.766;2022-10-31T08:49:30;40.88;;;14.32;;
62050;SDS011;48008;51.204;6.766;2022-10-31T08:51:56;36.90;;;14.20;;
62050;SDS011;48008;51.204;6.766;2022-10-31T08:54:28;38.72;;;14.07;;
62050;SDS011;48008;51.204;6.766;2022-10-31T08:56:58;38.92;;;15.15;;
62050;SDS011;48008;51.204;6.766;2022-10-31T08:59:37;36.55;;;14.60;;
62050;SDS011;48008;51.204;6.766;2022-10-31T09:04:47;32.10;;;13.73;;
62050;SDS011;48008;51.204;6.766;2022-10-31T09:07:14;32.38;;;14.43;;
62050;SDS011;48008;51.204;6.766;2022-10-31T09:09:45;39.20;;;14.65;;
62050;SDS011;48008;51.204;6.766;2022-10-31T09:12:12;34.22;;;14.45;;
62050;SDS011;48008;51.204;6.766;2022-10-31T09:14:59;39.80;;;14.15;;
62050;SDS011;48008;51.204;6.766;2022-10-31T09:17:36;34.88;;;14.27;;
62050;SDS011;48008;51.204;6.766;2022-10-31T09:20:15;30.40;;;13.20;;
62050;SDS011;48008;51.204;6.766;2022-10-31T09:22:41;36.45;;;14.13;;
62050;SDS011;48008;51.204;6.766;2022-10-31T09:25:08;41.00;;;14.43;;
62050;SDS011;48008;51.204;6.766;2022-10-31T09:27:38;33.90;;;13.77;;
62050;SDS011;48008;51.204;6.766;2022-10-31T09:30:05;37.40;;;13.88;;
62050;SDS011;48008;51.204;6.766;2022-10-31T09:32:33;45.15;;;14.35;;
62050;SDS011;48008;51.204;6.766;2022-10-31T09:35:01;45.67;;;14.13;;
62050;SDS011;48008;51.204;6.766;2022-10-31T09:37:29;35.90;;;14.10;;
62050;SDS011;48008;51.204;6.766;2022-10-31T09:39:55;39.60;;;15.05;;
62050;SDS011;48008;51.204;6.766;2022-10-31T09:42:38;35.83;;;14.73;;
62050;SDS011;48008;51.204;6.766;2022-10-31T09:45:39;42.13;;;15.00;;
62050;SDS011;48008;51.204;6.766;2022-10-31T09:49:14;43.38;;;14.50;;
62050;SDS011;48008;51.204;6.766;2022-10-31T09:51:48;34.10;;;13.88;;
62050;SDS011;48008;51.204;6.766;2022-10-31T09:54:32;37.40;;;14.80;;
62050;SDS011;48008;51.204;6.766;2022-10-31T09:57:07;42.28;;;13.57;;
62050;SDS011;48008;51.204;6.766;2022-10-31T09:59:41;42.40;;;15.25;;
62050;SDS011;48008;51.204;6.766;2022-10-31T10:02:13;33.35;;;13.98;;
62050;SDS011;48008;51.204;6.766;2022-10-31T10:07:44;38.08;;;15.45;;
62050;SDS011;48008;51.204;6.766;2022-10-31T10:10:49;48.33;;;14.68;;
62050;SDS011;48008;51.204;6.766;2022-10-31T10:13:43;35.33;;;15.00;;
62050;SDS011;48008;51.204;6.766;2022-10-31T10:25:40;41.15;;;15.85;;
62050;SDS011;48008;51.204;6.766;2022-10-31T10:28:39;46.75;;;16.40;;
62050;SDS011;48008;51.204;6.766;2022-10-31T10:31:01;39.92;;;14.52;;
62050;SDS011;48008;51.204;6.766;2022-10-31T10:33:36;35.13;;;15.32;;
62050;SDS011;48008;51.204;6.766;2022-10-31T10:36:10;38.72;;;15.55;;
62050;SDS011;48008;51.204;6.766;2022-10-31T10:41:28;32.15;;;13.55;;
62050;SDS011;48008;51.204;6.766;2022-10-31T10:43:59;36.38;;;12.90;;
62050;SDS011;48008;51.204;6.766;2022-10-31T10:46:33;33.42;;;12.05;;
62050;SDS011;48008;51.204;6.766;2022-10-31T10:49:31;40.90;;;12.20;;
62050;SDS011;48008;51.204;6.766;2022-10-31T10:52:38;33.00;;;11.77;;
62050;SDS011;48008;51.204;6.766;2022-10-31T10:55:32;42.65;;;11.80;;
62050;SDS011;48008;51.204;6.766;2022-10-31T10:58:00;33.38;;;11.43;;
62050;SDS011;48008;51.204;6.766;2022-10-31T11:00:45;37.55;;;12.43;;
62050;SDS011;48008;51.204;6.766;2022-10-31T11:03:14;33.00;;;11.73;;
62050;SDS011;48008;51.204;6.766;2022-10-31T11:05:44;32.65;;;11.57;;
62050;SDS011;48008;51.204;6.766;2022-10-31T11:08:47;37.72;;;11.40;;
62050;SDS011;48008;51.204;6.766;2022-10-31T11:11:04;32.47;;;12.60;;
62050;SDS011;48008;51.204;6.766;2022-10-31T11:13:36;31.42;;;11.30;;
62050;SDS011;48008;51.204;6.766;2022-10-31T11:16:06;33.75;;;11.93;;
62050;SDS011;48008;51.204;6.766;2022-10-31T11:18:38;35.63;;;12.13;;
62050;SDS011;48008;51.204;6.766;2022-10-31T11:23:45;37.08;;;11.35;;
62050;SDS011;48008;51.204;6.766;2022-10-31T11:26:20;31.35;;;12.05;;
62050;SDS011;48008;51.204;6.766;2022-10-31T11:28:56;33.90;;;11.77;;
62050;SDS011;48008;51.204;6.766;2022-10-31T11:31:23;32.05;;;11.10;;
62050;SDS011;48008;51.204;6.766;2022-10-31T11:33:54;36.65;;;12.55;;
62050;SDS011;48008;51.204;6.766;2022-10-31T11:36:29;38.05;;;11.95;;
62050;SDS011;48008;51.204;6.766;2022-10-31T11:38:59;32.05;;;11.35;;
62050;SDS011;48008;51.204;6.766;2022-10-31T11:41:32;34.20;;;11.48;;
62050;SDS011;48008;51.204;6.766;2022-10-31T11:44:02;35.00;;;12.00;;
62050;SDS011;48008;51.204;6.766;2022-10-31T11:46:33;37.80;;;12.60;;
62050;SDS011;48008;51.204;6.766;2022-10-31T11:49:11;33.45;;;11.98;;
62050;SDS011;48008;51.204;6.766;2022-10-31T11:51:42;32.75;;;13.32;;
62050;SDS011;48008;51.204;6.766;2022-10-31T11:54:22;31.75;;;12.68;;
62050;SDS011;48008;51.204;6.766;2022-10-31T11:56:54;36.20;;;12.10;;
62050;SDS011;48008;51.204;6.766;2022-10-31T11:59:22;29.60;;;11.70;;
62050;SDS011;48008;51.204;6.766;2022-10-31T12:01:52;29.88;;;12.13;;
62050;SDS011;48008;51.204;6.766;2022-10-31T12:04:23;35.10;;;12.43;;
62050;SDS011;48008;51.204;6.766;2022-10-31T12:06:57;37.60;;;12.48;;
62050;SDS011;48008;51.204;6.766;2022-10-31T12:09:26;28.33;;;12.20;;
62050;SDS011;48008;51.204;6.766;2022-10-31T12:12:00;32.40;;;12.75;;
62050;SDS011;48008;51.204;6.766;2022-10-31T12:15:15;28.98;;;12.85;;
62050;SDS011;48008;51.204;6.766;2022-10-31T12:17:43;29.92;;;11.60;;
62050;SDS011;48008;51.204;6.766;2022-10-31T12:23:03;23.40;;;10.77;;
62050;SDS011;48008;51.204;6.766;2022-10-31T12:33:52;35.33;;;10.63;;
62050;SDS011;48008;51.204;6.766;2022-10-31T12:36:33;25.25;;;8.75;;
62050;SDS011;48008;51.204;6.766;2022-10-31T12:39:25;26.77;;;8.40;;
62050;SDS011;48008;51.204;6.766;2022-10-31T12:42:09;29.05;;;8.00;;
62050;SDS011;48008;51.204;6.766;2022-10-31T12:45:55;33.92;;;8.25;;
62050;SDS011;48008;51.204;6.766;2022-10-31T12:51:05;33.35;;;7.63;;
62050;SDS011;48008;51.204;6.766;2022-10-31T13:00:04;28.35;;;7.72;;
62050;SDS011;48008;51.204;6.766;2022-10-31T13:05:46;28.95;;;7.45;;
62050;SDS011;48008;51.204;6.766;2022-10-31T13:08:27;21.98;;;7.55;;
62050;SDS011;48008;51.204;6.766;2022-10-31T13:11:05;23.08;;;7.00;;
62050;SDS011;48008;51.204;6.766;2022-10-31T13:13:53;33.63;;;7.35;;
62050;SDS011;48008;51.204;6.766;2022-10-31T13:16:27;32.30;;;7.22;;
62050;SDS011;48008;51.204;6.766;2022-10-31T13:19:02;30.63;;;7.63;;
62050;SDS011;48008;51.204;6.766;2022-10-31T13:21:40;22.55;;;6.88;;
62050;SDS011;48008;51.204;6.766;2022-10-31T13:24:16;23.00;;;7.32;;
62050;SDS011;48008;51.204;6.766;2022-10-31T13:26:49;28.23;;;8.57;;
62050;SDS011;48008;51.204;6.766;2022-10-31T13:29:20;21.40;;;7.70;;
62050;SDS011;48008;51.204;6.766;2022-10-31T13:31:52;28.65;;;7.40;;
62050;SDS011;48008;51.204;6.766;2022-10-31T13:34:28;23.27;;;7.15;;
62050;SDS011;48008;51.204;6.766;2022-10-31T13:37:03;22.75;;;6.68;;
62050;SDS011;48008;51.204;6.766;2022-10-31T13:39:45;25.23;;;6.60;;
62050;SDS011;48008;51.204;6.766;2022-10-31T13:42:23;25.23;;;7.22;;
62050;SDS011;48008;51.204;6.766;2022-10-31T13:45:20;17.40;;;6.57;;
62050;SDS011;48008;51.204;6.766;2022-10-31T13:47:56;24.40;;;7.72;;
62050;SDS011;48008;51.204;6.766;2022-10-31T13:50:27;33.63;;;7.30;;
62050;SDS011;48008;51.204;6.766;2022-10-31T13:58:54;30.98;;;10.32;;
62050;SDS011;48008;51.204;6.766;2022-10-31T14:01:25;27.08;;;7.55;;
62050;SDS011;48008;51.204;6.766;2022-10-31T14:03:57;27.23;;;6.60;;
62050;SDS011;48008;51.204;6.766;2022-10-31T14:09:18;24.17;;;7.15;;
62050;SDS011;48008;51.204;6.766;2022-10-31T14:11:48;20.80;;;6.60;;
62050;SDS011;48008;51.204;6.766;2022-10-31T14:14:16;28.00;;;7.60;;
62050;SDS011;48008;51.204;6.766;2022-10-31T14:16:45;21.10;;;5.63;;
62050;SDS011;48008;51.204;6.766;2022-10-31T14:19:21;30.73;;;7.03;;
62050;SDS011;48008;51.204;6.766;2022-10-31T14:21:48;22.73;;;6.18;;
62050;SDS011;48008;51.204;6.766;2022-10-31T14:27:02;22.77;;;6.43;;
62050;SDS011;48008;51.204;6.766;2022-10-31T14:29:31;27.80;;;6.78;;
62050;SDS011;48008;51.204;6.766;2022-10-31T14:32:04;23.58;;;6.47;;
62050;SDS011;48008;51.204;6.766;2022-10-31T14:34:59;25.98;;;5.90;;
62050;SDS011;48008;51.204;6.766;2022-10-31T14:41:37;18.88;;;6.47;;
62050;SDS011;48008;51.204;6.766;2022-10-31T14:49:25;24.77;;;5.43;;
62050;SDS011;48008;51.204;6.766;2022-10-31T14:52:14;18.23;;;5.75;;
62050;SDS011;48008;51.204;6.766;2022-10-31T14:54:45;22.15;;;6.00;;
62050;SDS011;48008;51.204;6.766;2022-10-31T14:57:21;28.98;;;6.35;;
62050;SDS011;48008;51.204;6.766;2022-10-31T14:59:53;23.35;;;5.72;;
62050;SDS011;48008;51.204;6.766;2022-10-31T15:02:26;21.25;;;5.88;;
62050;SDS011;48008;51.204;6.766;2022-10-31T15:05:00;22.08;;;5.88;;
62050;SDS011;48008;51.204;6.766;2022-10-31T15:07:33;21.17;;;5.70;;
62050;SDS011;48008;51.204;6.766;2022-10-31T15:10:04;22.67;;;6.00;;
62050;SDS011;48008;51.204;6.766;2022-10-31T15:12:34;26.67;;;6.93;;
62050;SDS011;48008;51.204;6.766;2022-10-31T15:15:12;21.50;;;5.33;;
62050;SDS011;48008;51.204;6.766;2022-10-31T15:17:43;21.23;;;6.22;;
62050;SDS011;48008;51.204;6.766;2022-10-31T15:20:16;25.02;;;6.18;;
62050;SDS011;48008;51.204;6.766;2022-10-31T15:22:45;20.17;;;5.55;;
62050;SDS011;48008;51.204;6.766;2022-10-31T15:25:16;25.95;;;6.60;;
62050;SDS011;48008;51.204;6.766;2022-10-31T15:27:46;24.77;;;5.72;;
62050;SDS011;48008;51.204;6.766;2022-10-31T15:32:54;26.60;;;6.07;;
62050;SDS011;48008;51.204;6.766;2022-10-31T15:35:27;26.35;;;5.72;;
62050;SDS011;48008;51.204;6.766;2022-10-31T15:37:56;20.77;;;6.00;;
62050;SDS011;48008;51.204;6.766;2022-10-31T15:40:25;21.77;;;6.40;;
62050;SDS011;48008;51.204;6.766;2022-10-31T15:42:55;29.45;;;6.28;;
62050;SDS011;48008;51.204;6.766;2022-10-31T15:47:57;23.52;;;5.97;;
62050;SDS011;48008;51.204;6.766;2022-10-31T15:50:28;17.23;;;5.80;;
62050;SDS011;48008;51.204;6.766;2022-10-31T15:52:59;22.05;;;6.22;;
62050;SDS011;48008;51.204;6.766;2022-10-31T15:55:27;25.80;;;5.45;;
62050;SDS011;48008;51.204;6.766;2022-10-31T16:00:28;30.13;;;6.13;;
62050;SDS011;48008;51.204;6.766;2022-10-31T16:03:05;28.33;;;6.20;;
62050;SDS011;48008;51.204;6.766;2022-10-31T16:05:52;30.95;;;5.93;;
62050;SDS011;48008;51.204;6.766;2022-10-31T16:16:42;21.17;;;5.60;;
62050;SDS011;48008;51.204;6.766;2022-10-31T16:21:43;21.58;;;5.95;;
62050;SDS011;48008;51.204;6.766;2022-10-31T16:24:26;23.00;;;6.07;;
62050;SDS011;48008;51.204;6.766;2022-10-31T16:26:59;23.40;;;5.70;;
62050;SDS011;48008;51.204;6.766;2022-10-31T16:29:36;22.40;;;5.53;;
62050;SDS011;48008;51.204;6.766;2022-10-31T16:35:19;20.55;;;5.45;;
62050;SDS011;48008;51.204;6.766;2022-10-31T16:37:51;19.15;;;5.15;;
62050;SDS011;48008;51.204;6.766;2022-10-31T16:40:18;16.77;;;5.70;;